createdAt,value
2018-05-27T00:01:28.564Z,20.83
2018-05-27T00:06:19.422Z,20.75
2018-05-27T00:11:10.309Z,20.66
2018-05-27T00:16:01.211Z,20.59
2018-05-27T00:20:52.087Z,20.55
2018-05-27T00:25:44.458Z,20.51
2018-05-27T00:30:36.095Z,20.44
2018-05-27T00:35:27.794Z,20.37
2018-05-27T00:40:19.448Z,20.32
2018-05-27T00:45:10.349Z,20.29
2018-05-27T00:50:01.294Z,20.20
2018-05-27T00:54:54.046Z,20.11
2018-05-27T00:59:44.974Z,20.08
2018-05-27T01:04:37.320Z,20.03
2018-05-27T01:09:29.702Z,19.98
2018-05-27T01:14:21.352Z,19.91
2018-05-27T01:19:12.989Z,19.86
2018-05-27T01:24:04.740Z,19.82
2018-05-27T01:28:55.634Z,19.73
2018-05-27T01:33:47.348Z,19.64
2018-05-27T01:38:38.209Z,19.58
2018-05-27T01:43:29.877Z,19.49
2018-05-27T01:48:20.795Z,19.45
2018-05-27T01:53:11.684Z,19.45
2018-05-27T01:58:03.325Z,19.38
2018-05-27T02:02:55.759Z,19.29
2018-05-27T02:07:46.669Z,19.26
2018-05-27T02:12:37.596Z,19.19
2018-05-27T02:17:28.470Z,19.10
2018-05-27T02:22:19.380Z,19.03
2018-05-27T02:27:11.074Z,18.98
2018-05-27T02:32:01.968Z,18.94
2018-05-27T02:36:53.703Z,18.89
2018-05-27T02:41:44.602Z,18.80
2018-05-27T02:46:35.525Z,18.74
2018-05-27T02:51:26.423Z,18.74
2018-05-27T02:56:18.104Z,18.68
2018-05-27T03:01:08.998Z,18.63
2018-05-27T03:05:59.972Z,18.53
2018-05-27T03:10:50.880Z,18.47
2018-05-27T03:15:41.761Z,18.40
2018-05-27T03:20:32.716Z,18.35
2018-05-27T03:25:23.604Z,18.31
2018-05-27T03:30:15.262Z,18.26
2018-05-27T03:35:06.907Z,18.21
2018-05-27T03:39:57.828Z,18.16
2018-05-27T03:44:48.746Z,18.11
2018-05-27T03:49:39.625Z,18.07
2018-05-27T03:54:30.555Z,18.08
2018-05-27T03:59:21.546Z,18.10
2018-05-27T04:04:41.399Z,18.13
2018-05-27T04:09:33.041Z,18.11
2018-05-27T04:14:23.920Z,18.10
2018-05-27T04:19:15.553Z,18.08
2018-05-27T04:24:07.219Z,18.06
2018-05-27T04:28:58.163Z,18.03
2018-05-27T04:33:50.592Z,18.02
2018-05-27T04:38:42.258Z,18.01
2018-05-27T04:43:33.192Z,18.02
2018-05-27T04:48:24.098Z,18.06
2018-05-27T04:53:14.987Z,18.13
2018-05-27T04:58:05.908Z,18.18
2018-05-27T05:02:56.835Z,18.21
2018-05-27T05:07:47.762Z,18.21
2018-05-27T05:12:38.676Z,18.25
2018-05-27T05:17:30.316Z,18.29
2018-05-27T05:22:21.920Z,18.33
2018-05-27T05:27:13.600Z,18.38
2018-05-27T05:32:04.536Z,18.42
2018-05-27T05:36:55.525Z,18.47
2018-05-27T05:41:46.444Z,18.54
2018-05-27T05:46:37.316Z,18.60
2018-05-27T05:51:28.201Z,18.67
2018-05-27T05:56:19.068Z,18.75
2018-05-27T06:01:10.743Z,18.84
2018-05-27T06:06:02.404Z,18.92
2018-05-27T06:10:54.111Z,18.98
2018-05-27T06:15:45.792Z,19.03
2018-05-27T06:20:36.689Z,19.11
2018-05-27T06:25:28.307Z,19.23
2018-05-27T06:30:19.988Z,19.33
2018-05-27T06:35:10.909Z,19.43
2018-05-27T06:40:01.819Z,19.52
2018-05-27T06:44:52.758Z,19.60
2018-05-27T06:49:43.617Z,19.67
2018-05-27T06:54:35.260Z,19.74
2018-05-27T06:59:27.657Z,19.83
2018-05-27T07:04:18.536Z,19.89
2018-05-27T07:09:10.198Z,20.00
2018-05-27T07:14:01.113Z,20.25
2018-05-27T07:18:51.999Z,20.78
2018-05-27T07:23:43.652Z,21.59
2018-05-27T07:28:34.568Z,22.61
2018-05-27T07:33:25.480Z,23.75
2018-05-27T07:38:17.103Z,24.75
2018-05-27T07:43:08.754Z,25.62
2018-05-27T07:48:00.421Z,26.43
2018-05-27T07:52:51.316Z,26.98
2018-05-27T07:57:42.228Z,27.17
2018-05-27T08:02:33.870Z,27.50
2018-05-27T08:07:26.280Z,27.79
2018-05-27T08:12:17.140Z,28.13
2018-05-27T08:17:08.781Z,28.25
2018-05-27T08:22:00.399Z,28.28
2018-05-27T08:26:52.090Z,28.06
2018-05-27T08:31:42.969Z,27.93
2018-05-27T08:36:34.650Z,27.83
2018-05-27T08:41:25.534Z,27.80
2018-05-27T08:46:17.165Z,27.83
2018-05-27T08:51:08.832Z,27.86
2018-05-27T08:55:59.707Z,27.96
2018-05-27T09:00:50.592Z,28.02
2018-05-27T09:05:42.230Z,28.01
2018-05-27T09:10:33.123Z,28.02
2018-05-27T09:15:24.814Z,28.00
2018-05-27T09:20:15.689Z,27.95
2018-05-27T09:25:06.623Z,28.10
2018-05-27T09:29:57.485Z,28.19
2018-05-27T09:34:49.142Z,28.40
2018-05-27T09:39:40.805Z,28.55
2018-05-27T09:44:31.703Z,28.65
2018-05-27T09:49:24.099Z,28.73
2018-05-27T09:54:14.990Z,28.73
2018-05-27T09:59:05.917Z,28.78
2018-05-27T10:03:57.563Z,28.81
2018-05-27T10:08:49.217Z,28.97
2018-05-27T10:13:41.029Z,29.15
2018-05-27T10:18:31.904Z,29.13
2018-05-27T10:23:23.585Z,29.30
2018-05-27T10:28:15.195Z,29.45
2018-05-27T10:33:06.862Z,29.35
2018-05-27T10:37:57.719Z,29.39
2018-05-27T10:42:48.605Z,29.67
2018-05-27T10:47:39.535Z,29.92
2018-05-27T10:52:30.413Z,30.11
2018-05-27T10:57:22.055Z,30.23
2018-05-27T11:02:13.688Z,30.25
2018-05-27T11:07:05.357Z,30.30
2018-05-27T11:11:56.251Z,30.36
2018-05-27T11:16:47.213Z,30.40
2018-05-27T11:21:38.103Z,30.57
2018-05-27T11:26:29.904Z,30.68
2018-05-27T11:31:20.810Z,30.87
2018-05-27T11:36:11.776Z,30.83
2018-05-27T11:41:03.432Z,30.63
2018-05-27T11:45:55.044Z,30.30
2018-05-27T11:50:46.711Z,30.29
2018-05-27T11:55:38.357Z,30.53
2018-05-27T12:00:29.223Z,30.73
2018-05-27T12:05:20.915Z,30.86
2018-05-27T12:10:11.825Z,30.63
2018-05-27T12:15:02.867Z,30.39
2018-05-27T12:19:53.753Z,30.46
2018-05-27T12:24:44.687Z,30.34
2018-05-27T12:29:35.616Z,30.14
2018-05-27T12:34:27.601Z,29.86
2018-05-27T12:39:18.531Z,29.71
2018-05-27T12:44:09.472Z,29.57
2018-05-27T12:49:01.130Z,29.48
2018-05-27T12:53:52.063Z,29.38
2018-05-27T12:58:42.995Z,28.99
2018-05-27T13:03:33.905Z,28.63
2018-05-27T13:08:25.559Z,28.50
2018-05-27T13:13:17.228Z,28.44
2018-05-27T13:18:09.622Z,28.44
2018-05-27T13:23:00.491Z,28.45
2018-05-27T13:27:51.379Z,28.45
2018-05-27T13:32:42.313Z,28.39
2018-05-27T13:37:33.196Z,28.29
2018-05-27T13:42:24.064Z,28.11
2018-05-27T13:47:14.954Z,27.95
2018-05-27T13:52:06.581Z,27.86
2018-05-27T13:56:57.434Z,27.91
2018-05-27T14:01:48.366Z,27.95
2018-05-27T14:06:40.763Z,27.94
2018-05-27T14:11:32.394Z,27.88
2018-05-27T14:16:24.078Z,27.91
2018-05-27T14:21:14.955Z,28.01
2018-05-27T14:26:07.433Z,28.05
2018-05-27T14:30:58.334Z,28.05
2018-05-27T14:35:50.006Z,28.07
2018-05-27T14:40:40.859Z,28.08
2018-05-27T14:45:33.272Z,28.13
2018-05-27T14:50:24.167Z,28.22
2018-05-27T14:55:18.622Z,28.22
2018-05-27T15:00:10.326Z,28.21
2018-05-27T15:05:01.937Z,28.21
2018-05-27T15:09:53.576Z,28.21
2018-05-27T15:14:45.215Z,28.15
2018-05-27T15:19:36.810Z,28.09
2018-05-27T15:24:29.250Z,28.06
2018-05-27T15:29:20.143Z,28.08
2018-05-27T15:34:11.060Z,28.05
2018-05-27T15:39:02.730Z,28.02
2018-05-27T15:43:54.356Z,28.01
2018-05-27T15:48:45.262Z,27.96
2018-05-27T15:53:36.861Z,27.94
2018-05-27T15:58:29.252Z,27.96
2018-05-27T16:03:20.888Z,27.99
2018-05-27T16:08:12.523Z,27.96
2018-05-27T16:13:04.211Z,27.79
2018-05-27T16:17:56.901Z,27.68
2018-05-27T16:22:49.308Z,27.61
2018-05-27T16:27:40.232Z,27.60
2018-05-27T16:32:31.899Z,27.53
2018-05-27T16:37:22.845Z,27.45
2018-05-27T16:42:14.499Z,27.37
2018-05-27T16:47:06.172Z,27.31
2018-05-27T16:51:57.048Z,27.25
2018-05-27T16:56:47.938Z,27.15
2018-05-27T17:01:38.859Z,27.07
2018-05-27T17:06:29.771Z,27.02
2018-05-27T17:11:20.820Z,26.96
2018-05-27T17:16:13.188Z,26.84
2018-05-27T17:21:04.865Z,26.69
2018-05-27T17:25:55.772Z,26.58
2018-05-27T17:30:47.430Z,26.51
2018-05-27T17:35:38.285Z,26.44
2018-05-27T17:40:29.169Z,26.40
2018-05-27T17:45:20.066Z,26.34
2018-05-27T17:50:11.695Z,26.27
2018-05-27T17:55:03.374Z,26.24
2018-05-27T17:59:55.004Z,26.20
2018-05-27T18:04:46.366Z,26.12
2018-05-27T18:09:37.263Z,26.00
2018-05-27T18:14:28.206Z,25.93
2018-05-27T18:19:19.430Z,25.94
2018-05-27T18:24:10.352Z,25.86
2018-05-27T18:29:01.225Z,25.75
2018-05-27T18:33:52.905Z,25.68
2018-05-27T18:38:43.857Z,25.65
2018-05-27T18:43:34.704Z,25.64
2018-05-27T18:48:25.654Z,25.57
2018-05-27T18:53:16.548Z,25.46
2018-05-27T18:58:08.218Z,25.36
2018-05-27T19:02:59.136Z,25.26
2018-05-27T19:07:50.052Z,25.16
2018-05-27T19:12:41.694Z,25.07
2018-05-27T19:17:32.588Z,24.98
2018-05-27T19:22:23.505Z,24.91
2018-05-27T19:27:15.162Z,24.80
2018-05-27T19:32:06.901Z,24.68
2018-05-27T19:36:57.767Z,24.60
2018-05-27T19:41:48.768Z,24.47
2018-05-27T19:46:39.705Z,24.33
2018-05-27T19:51:30.601Z,24.29
2018-05-27T19:56:21.510Z,24.22
2018-05-27T20:01:13.221Z,24.11
2018-05-27T20:06:04.865Z,23.99
2018-05-27T20:10:56.531Z,23.92
2018-05-27T20:15:47.449Z,23.84
2018-05-27T20:20:38.323Z,23.79
2018-05-27T20:25:30.022Z,23.73
2018-05-27T20:30:20.924Z,23.65
2018-05-27T20:35:11.816Z,23.56
2018-05-27T20:40:03.472Z,23.47
2018-05-27T20:44:54.374Z,23.41
2018-05-27T20:49:46.028Z,23.34
2018-05-27T20:54:37.707Z,23.24
2018-05-27T20:59:28.580Z,23.17
2018-05-27T21:04:19.531Z,23.07
2018-05-27T21:09:10.504Z,23.04
2018-05-27T21:14:02.110Z,23.02
2018-05-27T21:18:53.727Z,22.97
2018-05-27T21:23:44.646Z,22.93
2018-05-27T21:28:35.570Z,22.90
2018-05-27T21:33:27.197Z,22.87
2018-05-27T21:38:18.944Z,22.84
2018-05-27T21:43:09.873Z,22.78
2018-05-27T21:48:00.789Z,22.71
2018-05-27T21:52:51.714Z,22.67
2018-05-27T21:57:42.661Z,22.61
2018-05-27T22:02:33.648Z,22.55
2018-05-27T22:07:24.581Z,22.49
2018-05-27T22:12:16.216Z,22.44
2018-05-27T22:17:07.126Z,22.36
2018-05-27T22:21:58.039Z,22.27
2018-05-27T22:26:49.814Z,22.23
2018-05-27T22:31:40.709Z,22.19
2018-05-27T22:36:32.347Z,22.14
2018-05-27T22:41:24.097Z,22.07
2018-05-27T22:46:15.006Z,22.00
2018-05-27T22:51:05.904Z,21.94
2018-05-27T22:55:57.545Z,21.91
2018-05-27T23:00:48.590Z,21.86
2018-05-27T23:05:39.504Z,21.80
2018-05-27T23:10:31.143Z,21.74
2018-05-27T23:15:22.777Z,21.67
2018-05-27T23:20:13.713Z,21.62
2018-05-27T23:25:04.626Z,21.57
2018-05-27T23:29:55.490Z,21.53
2018-05-27T23:34:46.406Z,21.48
2018-05-27T23:39:37.369Z,21.43
2018-05-27T23:44:29.045Z,21.36
2018-05-27T23:49:19.951Z,21.28
2018-05-27T23:54:11.740Z,21.23
2018-05-27T23:59:02.636Z,21.17
